Time;durP1;ratioP1;P1;durP2;ratioP2;P2;SDS_P1;SDS_P2;PMS_P1;PMS_P2;Temp;Humidity;BMP_temperature;BMP_pressure;BME280_temperature;BME280_humidity;BME280_pressure;Samples;Min_cycle;Max_cycle;Signal;HPM_P1;HPM_P2
2022/09/10 00:00:42;;;;;;;12.00;2.17;;;;;;;;;;5000742;28;20058;-66
2022/09/10 00:03:09;;;;;;;9.65;2.47;;;;;;;;;;5007115;28;20057;-66
2022/09/10 00:05:39;;;;;;;10.13;2.28;;;;;;;;;;4995398;28;20113;-66
2022/09/10 00:08:06;;;;;;;9.65;2.10;;;;;;;;;;5005346;28;20449;-66
2022/09/10 00:10:37;;;;;;;13.32;2.42;;;;;;;;;;5002154;28;20038;-66
2022/09/10 00:13:03;;;;;;;12.82;2.25;;;;;;;;;;4997894;28;20050;-66
2022/09/10 00:15:29;;;;;;;9.70;2.75;;;;;;;;;;5013721;28;20116;-66
2022/09/10 00:17:55;;;;;;;14.60;3.00;;;;;;;;;;5030412;28;20461;-66
2022/09/10 00:20:21;;;;;;;14.63;2.50;;;;;;;;;;5007339;28;20026;-66
2022/09/10 00:22:48;;;;;;;11.73;2.13;;;;;;;;;;5007991;28;20376;-66
2022/09/10 00:25:14;;;;;;;12.30;2.80;;;;;;;;;;5000555;28;20489;-66
2022/09/10 00:27:40;;;;;;;15.02;2.65;;;;;;;;;;5010995;28;20153;-66
2022/09/10 00:30:07;;;;;;;15.27;2.80;;;;;;;;;;5001119;28;20022;-66
2022/09/10 00:32:33;;;;;;;15.10;2.25;;;;;;;;;;5037542;28;20517;-66
2022/09/10 00:35:00;;;;;;;16.13;2.72;;;;;;;;;;5009224;28;20026;-66
2022/09/10 00:37:26;;;;;;;7.90;2.28;;;;;;;;;;5000774;28;20030;-66
2022/09/10 00:39:54;;;;;;;13.05;2.28;;;;;;;;;;5011700;28;20031;-66
2022/09/10 00:42:20;;;;;;;9.48;2.95;;;;;;;;;;5003830;28;20509;-66
2022/09/10 00:44:47;;;;;;;12.38;2.33;;;;;;;;;;5004661;28;20019;-66
2022/09/10 00:47:21;;;;;;;19.55;3.15;;;;;;;;;;4996903;28;20042;-66
2022/09/10 00:50:06;;;;;;;10.13;3.58;;;;;;;;;;5011776;28;20027;-66
2022/09/10 00:52:33;;;;;;;9.90;2.13;;;;;;;;;;5004373;28;20036;-65
2022/09/10 00:55:00;;;;;;;16.10;2.80;;;;;;;;;;5002894;28;20491;-66
2022/09/10 00:57:27;;;;;;;8.32;2.50;;;;;;;;;;5010229;28;20079;-66
2022/09/10 00:59:56;;;;;;;11.27;2.17;;;;;;;;;;5006586;28;20018;-66
2022/09/10 01:02:22;;;;;;;20.00;3.00;;;;;;;;;;5013525;28;20064;-66
2022/09/10 01:04:49;;;;;;;14.10;2.35;;;;;;;;;;5035566;28;20084;-66
2022/09/10 01:07:16;;;;;;;16.40;2.85;;;;;;;;;;5008690;28;20042;-66
2022/09/10 01:09:42;;;;;;;10.13;2.35;;;;;;;;;;5028873;28;20549;-66
2022/09/10 01:12:27;;;;;;;12.88;3.00;;;;;;;;;;5040372;28;20030;-66
2022/09/10 01:15:02;;;;;;;9.63;2.45;;;;;;;;;;5004166;28;20445;-66
2022/09/10 01:17:51;;;;;;;12.02;2.47;;;;;;;;;;5029207;28;20410;-66
2022/09/10 01:20:17;;;;;;;9.68;2.38;;;;;;;;;;5007439;28;20050;-66
2022/09/10 01:22:43;;;;;;;10.95;3.22;;;;;;;;;;5012502;28;20394;-66
2022/09/10 01:25:19;;;;;;;16.15;2.70;;;;;;;;;;5017866;28;20500;-66
2022/09/10 01:27:53;;;;;;;16.85;2.47;;;;;;;;;;5028491;28;20035;-66
2022/09/10 01:30:24;;;;;;;7.43;2.17;;;;;;;;;;5038953;28;20109;-66
2022/09/10 01:33:10;;;;;;;16.40;2.90;;;;;;;;;;5003439;28;20112;-66
2022/09/10 01:35:50;;;;;;;11.43;2.75;;;;;;;;;;4995492;28;20398;-66
2022/09/10 01:38:21;;;;;;;15.88;3.38;;;;;;;;;;5039423;28;20081;-66
2022/09/10 01:40:49;;;;;;;13.65;2.70;;;;;;;;;;5002620;28;20030;-66
2022/09/10 01:43:19;;;;;;;13.60;2.35;;;;;;;;;;5030815;28;20018;-66
2022/09/10 01:46:08;;;;;;;9.77;2.50;;;;;;;;;;5028329;28;20125;-66
2022/09/10 01:48:41;;;;;;;14.27;2.75;;;;;;;;;;5005128;28;20467;-66
2022/09/10 01:51:14;;;;;;;18.60;3.00;;;;;;;;;;5004826;28;20026;-66
2022/09/10 01:53:44;;;;;;;9.63;2.30;;;;;;;;;;5027035;28;20033;-66
2022/09/10 01:56:30;;;;;;;11.05;2.75;;;;;;;;;;5040512;28;20034;-66
2022/09/10 01:58:59;;;;;;;14.18;3.05;;;;;;;;;;5004348;28;20054;-66
2022/09/10 02:01:34;;;;;;;8.60;1.98;;;;;;;;;;5032695;28;20025;-66
2022/09/10 02:04:03;;;;;;;14.63;3.42;;;;;;;;;;5024249;28;20118;-66
2022/09/10 02:06:32;;;;;;;12.27;2.00;;;;;;;;;;5000263;28;20490;-66
2022/09/10 02:09:00;;;;;;;12.38;2.72;;;;;;;;;;4994738;28;1128279;-66
2022/09/10 02:11:26;;;;;;;12.93;3.03;;;;;;;;;;5009127;28;20034;-66
2022/09/10 02:13:54;;;;;;;15.50;2.50;;;;;;;;;;5028841;28;20034;-66
2022/09/10 02:16:36;;;;;;;9.90;2.83;;;;;;;;;;5039119;28;20089;-66
2022/09/10 02:19:03;;;;;;;8.93;2.90;;;;;;;;;;5003559;28;20068;-66
2022/09/10 02:21:30;;;;;;;12.77;2.63;;;;;;;;;;5030902;28;20041;-66
2022/09/10 02:23:58;;;;;;;14.35;2.92;;;;;;;;;;5009917;28;20091;-66
2022/09/10 02:26:25;;;;;;;10.27;2.30;;;;;;;;;;4999905;28;20021;-66
2022/09/10 02:28:53;;;;;;;13.88;2.55;;;;;;;;;;5037994;28;20375;-66
2022/09/10 02:31:21;;;;;;;14.82;3.22;;;;;;;;;;5018312;28;20369;-66
2022/09/10 02:33:48;;;;;;;14.70;2.58;;;;;;;;;;4996368;28;20119;-66
2022/09/10 02:36:14;;;;;;;13.32;2.72;;;;;;;;;;5008791;28;20026;-66
2022/09/10 02:38:40;;;;;;;8.15;2.67;;;;;;;;;;5001354;28;20018;-66
2022/09/10 02:41:08;;;;;;;13.52;3.08;;;;;;;;;;5033773;28;20033;-66
2022/09/10 02:43:36;;;;;;;15.10;2.70;;;;;;;;;;5008731;28;20031;-66
2022/09/10 02:46:06;;;;;;;17.45;2.53;;;;;;;;;;5029974;28;20425;-66
2022/09/10 02:48:32;;;;;;;4.05;2.05;;;;;;;;;;5011784;28;20457;-66
2022/09/10 02:50:59;;;;;;;12.95;2.75;;;;;;;;;;5034835;28;20061;-66
2022/09/10 02:53:28;;;;;;;8.73;2.40;;;;;;;;;;5006042;28;20116;-66
2022/09/10 02:55:57;;;;;;;12.00;2.25;;;;;;;;;;5028026;28;20375;-66
2022/09/10 02:58:23;;;;;;;10.73;2.30;;;;;;;;;;5008233;28;20018;-66
2022/09/10 03:00:50;;;;;;;9.73;2.50;;;;;;;;;;5001510;28;20112;-66
2022/09/10 03:03:17;;;;;;;14.23;2.72;;;;;;;;;;5032267;28;20034;-66
2022/09/10 03:05:43;;;;;;;9.40;2.38;;;;;;;;;;5009172;28;20026;-66
2022/09/10 03:08:09;;;;;;;8.38;2.53;;;;;;;;;;4996155;28;20133;-66
2022/09/10 03:10:39;;;;;;;12.85;2.58;;;;;;;;;;5010018;28;20061;-66
2022/09/10 03:13:05;;;;;;;6.53;2.05;;;;;;;;;;5022937;28;20509;-66
2022/09/10 03:15:32;;;;;;;12.88;2.58;;;;;;;;;;5020718;28;20474;-66
2022/09/10 03:17:58;;;;;;;12.43;2.63;;;;;;;;;;5005508;28;20042;-66
2022/09/10 03:20:24;;;;;;;8.73;3.13;;;;;;;;;;5009690;28;20018;-66
2022/09/10 03:22:52;;;;;;;10.02;2.40;;;;;;;;;;4999138;28;20399;-66
2022/09/10 03:25:19;;;;;;;12.63;2.25;;;;;;;;;;5032867;28;20431;-66
2022/09/10 03:27:45;;;;;;;10.70;2.78;;;;;;;;;;5014446;28;20117;-66
2022/09/10 03:30:12;;;;;;;8.48;2.80;;;;;;;;;;4995126;28;20081;-66
2022/09/10 03:32:38;;;;;;;9.20;2.67;;;;;;;;;;5011739;28;20026;-66
2022/09/10 03:35:06;;;;;;;14.32;2.80;;;;;;;;;;5009958;28;20441;-66
2022/09/10 03:37:32;;;;;;;9.43;2.83;;;;;;;;;;5008545;28;20120;-66
2022/09/10 03:39:59;;;;;;;7.43;2.60;;;;;;;;;;5024001;28;20521;-66
2022/09/10 03:42:25;;;;;;;12.40;2.22;;;;;;;;;;4992695;28;20018;-66
2022/09/10 03:44:52;;;;;;;16.27;2.63;;;;;;;;;;5006106;28;20045;-66
2022/09/10 03:47:19;;;;;;;8.32;2.20;;;;;;;;;;5041553;28;20524;-66
2022/09/10 03:49:45;;;;;;;16.63;3.55;;;;;;;;;;5004328;28;20076;-66
2022/09/10 03:52:12;;;;;;;16.10;2.92;;;;;;;;;;4990711;28;20034;-66
2022/09/10 03:54:41;;;;;;;16.85;3.03;;;;;;;;;;5008166;28;20022;-66
2022/09/10 03:57:07;;;;;;;14.52;2.70;;;;;;;;;;5002725;28;20046;-66
2022/09/10 03:59:39;;;;;;;11.02;2.65;;;;;;;;;;5035852;28;20022;-66
2022/09/10 04:02:08;;;;;;;10.27;2.55;;;;;;;;;;5004423;28;20117;-66
2022/09/10 04:04:36;;;;;;;10.77;2.70;;;;;;;;;;5022655;28;20116;-66
2022/09/10 04:07:02;;;;;;;8.65;2.30;;;;;;;;;;5004031;28;20026;-66
2022/09/10 04:09:31;;;;;;;16.10;2.83;;;;;;;;;;5008199;28;20407;-67
2022/09/10 04:11:59;;;;;;;10.23;2.83;;;;;;;;;;5038651;28;20041;-66
2022/09/10 04:14:28;;;;;;;14.80;2.88;;;;;;;;;;5001939;28;20030;-66
2022/09/10 04:16:58;;;;;;;15.30;2.83;;;;;;;;;;5037303;28;20410;-66
2022/09/10 04:19:28;;;;;;;9.70;2.50;;;;;;;;;;5026571;28;20387;-67
2022/09/10 04:21:56;;;;;;;11.88;2.45;;;;;;;;;;5008198;28;20041;-67
2022/09/10 04:24:23;;;;;;;10.60;2.90;;;;;;;;;;5025242;28;20014;-66
2022/09/10 04:26:49;;;;;;;12.65;3.20;;;;;;;;;;5040406;28;20117;-66
2022/09/10 04:29:17;;;;;;;11.95;2.60;;;;;;;;;;5035843;28;20027;-66
2022/09/10 04:31:45;;;;;;;10.10;2.53;;;;;;;;;;5030848;28;20458;-66
2022/09/10 04:34:14;;;;;;;7.50;2.35;;;;;;;;;;5011721;28;20030;-66
2022/09/10 04:36:42;;;;;;;13.88;3.42;;;;;;;;;;5012921;28;20049;-66
2022/09/10 04:39:08;;;;;;;9.10;2.00;;;;;;;;;;5007525;28;20034;-66
2022/09/10 04:41:35;;;;;;;11.50;2.85;;;;;;;;;;4993540;28;20035;-66
2022/09/10 04:44:02;;;;;;;8.05;2.35;;;;;;;;;;5003272;28;20445;-66
2022/09/10 04:46:28;;;;;;;14.77;3.58;;;;;;;;;;5025485;28;20030;-65
2022/09/10 04:48:57;;;;;;;10.48;3.10;;;;;;;;;;5025497;28;20029;-65
2022/09/10 04:51:24;;;;;;;13.13;2.60;;;;;;;;;;5034899;28;20455;-66
2022/09/10 04:53:52;;;;;;;13.38;3.15;;;;;;;;;;5036820;28;20022;-66
2022/09/10 04:56:21;;;;;;;10.15;3.65;;;;;;;;;;5011135;28;20029;-66
2022/09/10 04:58:48;;;;;;;8.15;2.47;;;;;;;;;;5002454;28;20028;-66
2022/09/10 05:01:15;;;;;;;10.30;2.63;;;;;;;;;;5009715;28;20362;-66
2022/09/10 05:03:43;;;;;;;11.18;2.40;;;;;;;;;;5012884;28;20836;-66
2022/09/10 05:06:10;;;;;;;6.13;2.35;;;;;;;;;;5002898;28;20026;-66
2022/09/10 05:08:36;;;;;;;10.82;2.90;;;;;;;;;;5000027;28;20066;-66
2022/09/10 05:11:04;;;;;;;10.95;2.88;;;;;;;;;;5002816;28;20042;-66
2022/09/10 05:13:30;;;;;;;13.00;2.63;;;;;;;;;;5032958;28;20026;-65
2022/09/10 05:15:58;;;;;;;12.35;4.10;;;;;;;;;;5010759;28;20527;-65
2022/09/10 05:18:25;;;;;;;10.18;2.72;;;;;;;;;;5012105;28;20061;-66
2022/09/10 05:20:52;;;;;;;14.27;2.70;;;;;;;;;;5015984;28;20040;-65
2022/09/10 05:23:19;;;;;;;14.07;3.17;;;;;;;;;;5011874;28;20482;-66
2022/09/10 05:25:47;;;;;;;14.52;3.00;;;;;;;;;;5045685;28;20494;-65
2022/09/10 05:28:15;;;;;;;19.95;3.80;;;;;;;;;;5042898;28;20054;-66
2022/09/10 05:30:41;;;;;;;18.75;4.85;;;;;;;;;;5032586;28;20033;-65
2022/09/10 05:33:07;;;;;;;10.60;2.97;;;;;;;;;;5004729;28;20037;-65
2022/09/10 05:35:34;;;;;;;10.82;2.60;;;;;;;;;;5005546;28;20124;-65
2022/09/10 05:38:00;;;;;;;11.13;3.20;;;;;;;;;;5043395;28;20030;-66
2022/09/10 05:40:28;;;;;;;10.27;3.03;;;;;;;;;;5028075;28;20042;-66
2022/09/10 05:42:55;;;;;;;18.88;3.70;;;;;;;;;;5020734;28;20029;-66
2022/09/10 05:45:22;;;;;;;13.05;4.00;;;;;;;;;;5019522;28;20040;-66
2022/09/10 05:47:50;;;;;;;16.85;3.17;;;;;;;;;;5031884;28;20037;-66
2022/09/10 05:50:21;;;;;;;10.25;3.00;;;;;;;;;;5011442;28;20508;-66
2022/09/10 05:52:48;;;;;;;9.52;3.03;;;;;;;;;;5004325;28;20033;-66
2022/09/10 05:55:14;;;;;;;11.43;2.63;;;;;;;;;;5004155;28;20026;-66
2022/09/10 05:57:40;;;;;;;10.27;2.70;;;;;;;;;;5012569;28;20493;-65
2022/09/10 06:00:09;;;;;;;11.05;3.60;;;;;;;;;;5018968;28;20048;-66
2022/09/10 06:02:49;;;;;;;12.02;2.97;;;;;;;;;;5013859;28;20088;-66
2022/09/10 06:05:32;;;;;;;7.63;2.47;;;;;;;;;;5008603;28;20034;-66
2022/09/10 06:08:01;;;;;;;7.80;2.50;;;;;;;;;;5010820;28;20046;-66
2022/09/10 06:10:27;;;;;;;9.90;2.78;;;;;;;;;;5036043;28;20171;-66
2022/09/10 06:12:53;;;;;;;12.70;2.47;;;;;;;;;;5024583;28;20030;-66
2022/09/10 06:15:20;;;;;;;8.35;2.67;;;;;;;;;;5019475;28;20021;-65
2022/09/10 06:17:48;;;;;;;14.75;2.42;;;;;;;;;;5043628;28;20033;-65
2022/09/10 06:20:15;;;;;;;14.90;3.00;;;;;;;;;;5014073;28;20026;-65
2022/09/10 06:22:43;;;;;;;10.48;3.17;;;;;;;;;;5041710;28;20026;-65
2022/09/10 06:25:10;;;;;;;11.95;3.08;;;;;;;;;;5018509;28;20014;-65
2022/09/10 06:27:37;;;;;;;6.28;2.40;;;;;;;;;;5020688;28;20109;-65
2022/09/10 06:30:04;;;;;;;9.85;2.50;;;;;;;;;;5019606;28;20277;-65
2022/09/10 06:32:31;;;;;;;11.98;2.63;;;;;;;;;;5040009;28;20521;-65
2022/09/10 06:34:58;;;;;;;9.68;2.70;;;;;;;;;;5018091;28;20036;-66
2022/09/10 06:37:25;;;;;;;6.57;2.30;;;;;;;;;;5016922;28;20022;-66
2022/09/10 06:39:52;;;;;;;10.25;2.75;;;;;;;;;;5038719;28;20084;-65
2022/09/10 06:42:19;;;;;;;9.65;2.72;;;;;;;;;;5016220;28;20409;-66
2022/09/10 06:44:56;;;;;;;10.05;3.30;;;;;;;;;;5031756;28;20037;-66
2022/09/10 06:47:51;;;;;;;14.27;2.55;;;;;;;;;;4980951;28;20129;-65
2022/09/10 06:50:20;;;;;;;9.48;2.15;;;;;;;;;;4983574;28;20615;-66
2022/09/10 06:52:48;;;;;;;13.27;2.83;;;;;;;;;;4984502;28;20506;-66
2022/09/10 06:55:14;;;;;;;8.40;2.55;;;;;;;;;;4964031;28;20035;-66
2022/09/10 06:57:43;;;;;;;6.20;2.08;;;;;;;;;;4958682;28;20043;-66
2022/09/10 07:00:13;;;;;;;10.90;2.88;;;;;;;;;;4974599;28;20023;-66
2022/09/10 07:02:39;;;;;;;8.38;2.42;;;;;;;;;;4981997;28;20050;-66
2022/09/10 07:05:07;;;;;;;12.75;2.65;;;;;;;;;;4993705;28;20034;-66
2022/09/10 07:07:35;;;;;;;8.82;2.20;;;;;;;;;;4961093;28;20540;-66
2022/09/10 07:10:03;;;;;;;12.55;2.15;;;;;;;;;;4962827;28;20023;-66
2022/09/10 07:12:29;;;;;;;12.38;2.30;;;;;;;;;;4953670;28;20094;-66
2022/09/10 07:14:55;;;;;;;10.52;2.13;;;;;;;;;;4970447;28;20042;-66
2022/09/10 07:17:22;;;;;;;5.88;1.83;;;;;;;;;;4966640;28;20044;-66
2022/09/10 07:19:48;;;;;;;12.80;2.38;;;;;;;;;;4971767;28;20070;-66
2022/09/10 07:22:22;;;;;;;10.43;2.00;;;;;;;;;;4969820;28;20026;-66
2022/09/10 07:24:50;;;;;;;11.20;2.60;;;;;;;;;;4998276;28;20038;-66
2022/09/10 07:27:26;;;;;;;6.03;2.00;;;;;;;;;;5024891;28;20041;-66
2022/09/10 07:29:53;;;;;;;10.95;2.42;;;;;;;;;;5026569;28;20060;-66
2022/09/10 07:32:19;;;;;;;11.82;2.22;;;;;;;;;;5023314;28;20057;-66
2022/09/10 07:34:49;;;;;;;11.77;2.45;;;;;;;;;;5016815;28;20529;-66
2022/09/10 07:37:15;;;;;;;9.68;3.55;;;;;;;;;;5014340;28;20483;-66
2022/09/10 07:39:44;;;;;;;10.35;2.20;;;;;;;;;;5005826;28;20386;-66
2022/09/10 07:42:11;;;;;;;12.60;2.92;;;;;;;;;;5013075;28;20049;-66
2022/09/10 07:44:37;;;;;;;6.40;1.50;;;;;;;;;;4992098;28;20034;-66
2022/09/10 07:47:03;;;;;;;10.02;1.92;;;;;;;;;;5030666;28;20052;-66
2022/09/10 07:49:31;;;;;;;8.13;1.98;;;;;;;;;;5001759;28;20388;-66
2022/09/10 07:51:58;;;;;;;12.48;2.22;;;;;;;;;;5006108;28;20034;-66
2022/09/10 07:54:27;;;;;;;9.80;2.08;;;;;;;;;;4995432;28;20085;-66
2022/09/10 07:56:55;;;;;;;8.95;2.00;;;;;;;;;;5010012;28;20601;-65
2022/09/10 07:59:21;;;;;;;9.95;2.28;;;;;;;;;;4996575;28;20015;-65
2022/09/10 08:01:51;;;;;;;14.13;2.00;;;;;;;;;;4995029;28;20101;-65
2022/09/10 08:04:19;;;;;;;7.03;1.92;;;;;;;;;;5006165;28;20442;-65
2022/09/10 08:06:45;;;;;;;6.85;1.90;;;;;;;;;;5008762;28;20030;-65
2022/09/10 08:09:13;;;;;;;8.18;1.92;;;;;;;;;;5029699;28;20057;-65
2022/09/10 08:11:46;;;;;;;8.35;2.00;;;;;;;;;;5003798;28;20037;-65
2022/09/10 08:14:15;;;;;;;5.82;1.58;;;;;;;;;;5037251;28;20127;-65
2022/09/10 08:16:46;;;;;;;12.32;1.98;;;;;;;;;;5036330;28;20042;-65
2022/09/10 08:19:13;;;;;;;7.82;2.50;;;;;;;;;;5006766;28;20079;-65
2022/09/10 08:21:40;;;;;;;8.40;1.63;;;;;;;;;;5003507;28;20490;-65
2022/09/10 08:24:07;;;;;;;7.47;1.92;;;;;;;;;;5005097;28;20029;-65
2022/09/10 08:26:34;;;;;;;8.75;2.08;;;;;;;;;;5003471;28;20072;-65
2022/09/10 08:29:04;;;;;;;8.23;1.85;;;;;;;;;;5021114;28;20112;-65
2022/09/10 08:31:30;;;;;;;7.13;1.80;;;;;;;;;;5009209;28;20053;-65
2022/09/10 08:34:12;;;;;;;8.43;2.28;;;;;;;;;;5035867;28;20137;-65
2022/09/10 08:36:41;;;;;;;6.53;1.55;;;;;;;;;;5007997;28;20030;-65
2022/09/10 08:39:08;;;;;;;7.10;1.92;;;;;;;;;;5022825;28;20064;-65
2022/09/10 08:41:38;;;;;;;10.88;1.83;;;;;;;;;;5008347;28;20521;-65
2022/09/10 08:44:22;;;;;;;6.15;1.60;;;;;;;;;;5028025;28;20030;-65
2022/09/10 08:46:54;;;;;;;11.38;2.10;;;;;;;;;;5014345;28;20114;-65
2022/09/10 08:49:21;;;;;;;10.63;2.03;;;;;;;;;;5026364;28;20030;-65
2022/09/10 08:51:53;;;;;;;5.35;1.63;;;;;;;;;;5001765;28;20058;-65
2022/09/10 08:54:23;;;;;;;5.80;1.58;;;;;;;;;;5006484;28;20060;-65
2022/09/10 08:56:49;;;;;;;10.07;2.05;;;;;;;;;;4997439;28;20058;-65
2022/09/10 08:59:21;;;;;;;7.85;2.15;;;;;;;;;;5012426;28;20033;-65
2022/09/10 09:02:00;;;;;;;7.75;1.95;;;;;;;;;;5012824;28;20064;-65
2022/09/10 09:04:34;;;;;;;9.32;1.70;;;;;;;;;;5017502;28;20509;-65
2022/09/10 09:07:04;;;;;;;6.90;1.63;;;;;;;;;;5010376;28;20406;-65
2022/09/10 09:09:30;;;;;;;10.70;2.15;;;;;;;;;;5028107;28;20062;-65
2022/09/10 09:12:06;;;;;;;5.85;2.13;;;;;;;;;;5011021;28;20041;-65
2022/09/10 09:14:39;;;;;;;8.18;1.85;;;;;;;;;;5014095;28;20038;-65
2022/09/10 09:17:06;;;;;;;6.75;1.77;;;;;;;;;;5012625;28;20042;-65
2022/09/10 09:19:33;;;;;;;7.82;2.03;;;;;;;;;;5004226;28;20018;-65
2022/09/10 09:22:28;;;;;;;6.43;1.75;;;;;;;;;;5035588;28;20038;-65
2022/09/10 09:25:08;;;;;;;5.60;1.98;;;;;;;;;;5006181;28;20039;-65
2022/09/10 09:27:37;;;;;;;7.53;1.45;;;;;;;;;;5014404;28;20065;-65
2022/09/10 09:30:12;;;;;;;7.22;1.63;;;;;;;;;;4994834;28;20037;-65
2022/09/10 09:32:41;;;;;;;8.52;1.27;;;;;;;;;;5014180;28;20034;-65
2022/09/10 09:35:16;;;;;;;8.52;1.80;;;;;;;;;;4995131;28;20099;-65
2022/09/10 09:37:47;;;;;;;5.53;1.40;;;;;;;;;;4996127;28;20030;-65
2022/09/10 09:40:28;;;;;;;7.25;1.50;;;;;;;;;;5014816;28;20382;-65
2022/09/10 09:42:57;;;;;;;11.25;1.98;;;;;;;;;;5012054;28;20026;-65
2022/09/10 09:45:42;;;;;;;6.72;2.33;;;;;;;;;;4993080;28;20568;-65
2022/09/10 09:48:09;;;;;;;;;;;;;;;;;;5013196;28;20045;-65
2022/09/10 09:50:38;;;;;;;6.53;1.75;;;;;;;;;;4994524;28;20283;-65
2022/09/10 09:53:04;;;;;;;11.35;2.65;;;;;;;;;;5004177;28;20057;-65
2022/09/10 09:55:41;;;;;;;6.82;1.60;;;;;;;;;;5006238;28;20065;-64
2022/09/10 09:58:31;;;;;;;7.40;2.00;;;;;;;;;;5011963;28;20068;-65
2022/09/10 10:01:03;;;;;;;13.68;1.75;;;;;;;;;;5006224;28;20037;-64
2022/09/10 10:03:35;;;;;;;5.05;1.30;;;;;;;;;;5000300;28;20104;-65
2022/09/10 10:06:05;;;;;;;17.80;2.00;;;;;;;;;;5005467;28;20038;-65
2022/09/10 10:08:39;;;;;;;9.57;1.67;;;;;;;;;;5015080;28;20046;-65
2022/09/10 10:11:06;;;;;;;7.70;1.52;;;;;;;;;;5002151;28;20030;-65
2022/09/10 10:13:40;;;;;;;8.25;1.63;;;;;;;;;;5013409;28;20490;-64
2022/09/10 10:16:23;;;;;;;13.25;1.63;;;;;;;;;;5014219;28;20489;-65
2022/09/10 10:18:50;;;;;;;5.90;1.52;;;;;;;;;;5010543;28;20048;-66
2022/09/10 10:21:16;;;;;;;8.60;1.40;;;;;;;;;;5000087;28;20438;-65
2022/09/10 10:23:42;;;;;;;9.05;1.58;;;;;;;;;;4999719;28;20122;-65
2022/09/10 10:26:17;;;;;;;8.13;1.27;;;;;;;;;;4999805;28;20117;-66
2022/09/10 10:28:46;;;;;;;7.00;1.42;;;;;;;;;;4994724;28;20029;-66
2022/09/10 10:31:13;;;;;;;3.97;1.48;;;;;;;;;;4996955;28;20065;-66
2022/09/10 10:33:45;;;;;;;5.85;1.40;;;;;;;;;;4999910;28;20030;-65
2022/09/10 10:36:27;;;;;;;3.03;1.48;;;;;;;;;;4995830;28;20783;-66
2022/09/10 10:38:59;;;;;;;7.15;1.55;;;;;;;;;;5008875;28;20029;-66
2022/09/10 10:41:35;;;;;;;6.25;1.25;;;;;;;;;;5013422;28;20084;-65
2022/09/10 10:44:01;;;;;;;5.60;1.60;;;;;;;;;;5005765;28;20390;-66
2022/09/10 10:46:39;;;;;;;5.30;1.30;;;;;;;;;;5010139;28;20026;-65
2022/09/10 10:49:15;;;;;;;5.68;1.58;;;;;;;;;;4996980;28;20040;-66
2022/09/10 10:51:41;;;;;;;4.38;2.10;;;;;;;;;;4996936;28;20045;-66
2022/09/10 10:54:13;;;;;;;10.93;1.98;;;;;;;;;;4996818;28;20038;-66
2022/09/10 10:56:39;;;;;;;3.30;1.30;;;;;;;;;;4997223;28;20049;-65
2022/09/10 10:59:05;;;;;;;7.82;1.40;;;;;;;;;;4998736;28;20045;-66
2022/09/10 11:01:34;;;;;;;5.50;1.35;;;;;;;;;;4999087;28;20033;-66
2022/09/10 11:04:13;;;;;;;5.68;1.73;;;;;;;;;;4998385;28;20553;-66
2022/09/10 11:06:42;;;;;;;4.80;1.20;;;;;;;;;;4998311;28;20034;-66
2022/09/10 11:09:31;;;;;;;4.85;1.48;;;;;;;;;;5001814;28;20058;-66
2022/09/10 11:12:00;;;;;;;3.58;1.02;;;;;;;;;;4996444;28;20045;-65
2022/09/10 11:14:47;;;;;;;5.70;1.83;;;;;;;;;;4998824;28;20027;-65
2022/09/10 11:17:22;;;;;;;5.97;1.23;;;;;;;;;;5001160;28;20034;-65
2022/09/10 11:19:52;;;;;;;5.00;1.13;;;;;;;;;;5001674;28;20479;-65
2022/09/10 11:22:30;;;;;;;4.28;1.80;;;;;;;;;;5030648;28;20034;-65
2022/09/10 11:25:22;;;;;;;6.32;1.35;;;;;;;;;;5018505;28;20042;-66
2022/09/10 11:27:54;;;;;;;3.70;0.97;;;;;;;;;;5002594;28;20048;-66
2022/09/10 11:30:21;;;;;;;2.63;1.33;;;;;;;;;;5008753;28;20502;-66
2022/09/10 11:32:58;;;;;;;6.10;1.25;;;;;;;;;;5011790;28;20042;-66
2022/09/10 11:35:30;;;;;;;6.30;1.20;;;;;;;;;;5003190;28;20018;-66
2022/09/10 11:38:17;;;;;;;6.18;1.40;;;;;;;;;;5017039;28;20038;-66
2022/09/10 11:40:43;;;;;;;7.13;1.08;;;;;;;;;;5000512;28;20490;-66
2022/09/10 11:43:12;;;;;;;4.25;1.10;;;;;;;;;;5001530;28;20026;-66
2022/09/10 11:45:47;;;;;;;2.20;1.05;;;;;;;;;;5004614;28;20033;-66
2022/09/10 11:48:16;;;;;;;4.38;1.33;;;;;;;;;;5006923;28;20030;-66
2022/09/10 11:50:45;;;;;;;7.38;1.40;;;;;;;;;;5004655;28;20389;-66
2022/09/10 11:53:14;;;;;;;4.63;1.23;;;;;;;;;;5000913;28;20030;-66
2022/09/10 11:55:59;;;;;;;3.63;1.27;;;;;;;;;;5007094;28;20033;-66
2022/09/10 11:58:31;;;;;;;4.63;1.35;;;;;;;;;;5006271;28;20026;-66
2022/09/10 12:01:12;;;;;;;7.03;1.25;;;;;;;;;;4997007;28;20022;-66
2022/09/10 12:04:11;;;;;;;7.68;1.27;;;;;;;;;;5005895;28;20504;-66
2022/09/10 12:06:46;;;;;;;11.18;1.92;;;;;;;;;;4999893;28;20057;-66
2022/09/10 12:09:19;;;;;;;3.03;1.42;;;;;;;;;;5003228;28;20043;-66
2022/09/10 12:11:46;;;;;;;5.85;1.20;;;;;;;;;;5009443;28;20037;-66
2022/09/10 12:14:18;;;;;;;5.65;1.15;;;;;;;;;;5012291;28;20022;-66
2022/09/10 12:16:50;;;;;;;5.05;1.33;;;;;;;;;;5010250;28;20466;-66
2022/09/10 12:19:20;;;;;;;6.38;1.23;;;;;;;;;;5010837;28;20060;-66
2022/09/10 12:21:52;;;;;;;3.70;1.30;;;;;;;;;;5016538;28;20073;-66
2022/09/10 12:24:30;;;;;;;10.63;1.33;;;;;;;;;;5012621;28;20286;-66
2022/09/10 12:26:58;;;;;;;4.07;1.17;;;;;;;;;;5011385;28;20057;-66
2022/09/10 12:29:26;;;;;;;3.60;1.05;;;;;;;;;;5012971;28;20033;-66
2022/09/10 12:32:08;;;;;;;4.47;1.05;;;;;;;;;;5013053;28;20034;-66
2022/09/10 12:34:35;;;;;;;2.95;1.13;;;;;;;;;;5011963;28;20033;-66
2022/09/10 12:37:01;;;;;;;2.40;1.00;;;;;;;;;;5011717;28;20022;-66
2022/09/10 12:39:28;;;;;;;4.70;0.95;;;;;;;;;;5011480;28;20026;-66
2022/09/10 12:41:56;;;;;;;4.03;1.08;;;;;;;;;;5013347;28;20029;-66
2022/09/10 12:44:28;;;;;;;6.43;1.33;;;;;;;;;;5012720;28;20054;-66
2022/09/10 12:47:13;;;;;;;7.00;1.20;;;;;;;;;;5012256;28;20112;-66
2022/09/10 12:49:50;;;;;;;5.18;0.90;;;;;;;;;;5012501;28;20769;-66
2022/09/10 12:52:22;;;;;;;4.03;1.15;;;;;;;;;;5010268;28;20520;-66
2022/09/10 12:54:54;;;;;;;3.40;1.42;;;;;;;;;;5009059;28;20164;-66
2022/09/10 12:57:29;;;;;;;3.63;1.02;;;;;;;;;;5012626;28;20128;-66
2022/09/10 13:00:16;;;;;;;3.10;1.00;;;;;;;;;;5013317;28;20061;-66
2022/09/10 13:03:18;;;;;;;6.05;0.90;;;;;;;;;;5009938;28;20390;-66
2022/09/10 13:05:47;;;;;;;8.02;1.00;;;;;;;;;;4969078;28;20038;-66
2022/09/10 13:08:13;;;;;;;4.35;1.35;;;;;;;;;;4968058;28;20187;-66
2022/09/10 13:10:40;;;;;;;2.10;1.02;;;;;;;;;;4970525;28;20154;-66
2022/09/10 13:13:17;;;;;;;7.63;1.05;;;;;;;;;;4969857;28;20589;-66
2022/09/10 13:15:49;;;;;;;1.63;1.00;;;;;;;;;;4971278;28;20428;-66
2022/09/10 13:18:26;;;;;;;3.63;1.30;;;;;;;;;;4963140;28;20439;-66
2022/09/10 13:20:52;;;;;;;4.65;1.00;;;;;;;;;;4967062;28;20042;-66
2022/09/10 13:23:22;;;;;;;4.63;1.20;;;;;;;;;;4968743;28;20026;-66
2022/09/10 13:25:49;;;;;;;3.00;1.00;;;;;;;;;;4966710;28;20023;-65
2022/09/10 13:28:33;;;;;;;5.90;1.30;;;;;;;;;;4967600;28;20114;-65
2022/09/10 13:31:00;;;;;;;6.70;1.30;;;;;;;;;;4966190;28;20035;-66
2022/09/10 13:33:28;;;;;;;3.97;1.30;;;;;;;;;;4958944;28;20179;-66
2022/09/10 13:36:23;;;;;;;6.97;1.15;;;;;;;;;;4967336;28;20054;-66
2022/09/10 13:38:55;;;;;;;4.00;1.10;;;;;;;;;;4917661;29;20050;-66
2022/09/10 13:41:40;;;;;;;4.63;1.60;;;;;;;;;;4938045;29;20032;-66
2022/09/10 13:44:06;;;;;;;4.07;1.00;;;;;;;;;;4948173;29;20134;-66
2022/09/10 13:46:35;;;;;;;4.65;1.27;;;;;;;;;;4949897;29;20059;-66
2022/09/10 13:49:05;;;;;;;4.00;1.05;;;;;;;;;;4944790;29;20519;-66
2022/09/10 13:51:31;;;;;;;3.88;1.13;;;;;;;;;;4950521;29;20035;-66
2022/09/10 13:54:02;;;;;;;4.22;1.20;;;;;;;;;;4949774;29;20038;-66
2022/09/10 13:56:29;;;;;;;3.70;1.05;;;;;;;;;;4948948;29;20118;-66
2022/09/10 13:58:59;;;;;;;5.93;1.00;;;;;;;;;;4940079;29;20101;-66
2022/09/10 14:01:45;;;;;;;2.42;0.85;;;;;;;;;;4946490;29;20039;-66
2022/09/10 14:04:21;;;;;;;4.85;1.20;;;;;;;;;;4952223;28;20078;-66
2022/09/10 14:06:47;;;;;;;4.18;1.15;;;;;;;;;;4939376;29;20038;-66
2022/09/10 14:09:13;;;;;;;3.83;1.10;;;;;;;;;;4943941;29;20134;-66
2022/09/10 14:11:41;;;;;;;6.90;1.50;;;;;;;;;;4950904;29;20125;-66
2022/09/10 14:14:15;;;;;;;4.50;1.35;;;;;;;;;;4955366;28;20031;-66
2022/09/10 14:16:42;;;;;;;3.55;1.08;;;;;;;;;;5002504;28;20473;-66
2022/09/10 14:19:14;;;;;;;4.53;1.25;;;;;;;;;;5010346;28;20029;-66
2022/09/10 14:21:40;;;;;;;4.45;1.13;;;;;;;;;;5012217;28;20497;-66
2022/09/10 14:24:25;;;;;;;6.15;1.40;;;;;;;;;;5008104;28;20022;-66
2022/09/10 14:27:04;;;;;;;3.65;1.15;;;;;;;;;;5010175;28;20022;-66
2022/09/10 14:29:30;;;;;;;5.65;1.05;;;;;;;;;;5020910;28;20060;-66
2022/09/10 14:31:56;;;;;;;5.13;1.77;;;;;;;;;;5009645;28;20470;-66
2022/09/10 14:34:31;;;;;;;4.05;0.80;;;;;;;;;;5005763;28;20054;-66
2022/09/10 14:36:58;;;;;;;4.03;1.73;;;;;;;;;;5005121;28;20474;-66
2022/09/10 14:39:24;;;;;;;3.90;1.00;;;;;;;;;;5010235;28;20025;-66
2022/09/10 14:42:07;;;;;;;5.45;1.17;;;;;;;;;;5007465;28;20111;-66
2022/09/10 14:44:39;;;;;;;4.38;0.95;;;;;;;;;;5007310;28;20025;-66
2022/09/10 14:47:08;;;;;;;3.83;1.00;;;;;;;;;;5012097;28;20030;-66
2022/09/10 14:49:36;;;;;;;3.65;1.20;;;;;;;;;;5011182;28;20025;-66
2022/09/10 14:52:03;;;;;;;7.75;1.60;;;;;;;;;;5010507;28;20045;-66
2022/09/10 14:54:31;;;;;;;5.22;1.33;;;;;;;;;;5012954;28;20025;-67
2022/09/10 14:56:58;;;;;;;4.13;1.48;;;;;;;;;;5008540;28;20025;-66